Time;durP1;ratioP1;P1;durP2;ratioP2;P2;SDS_P1;SDS_P2;PMS_P1;PMS_P2;Temp;Humidity;BMP_temperature;BMP_pressure;BME280_temperature;BME280_humidity;BME280_pressure;Samples;Min_cycle;Max_cycle;Signal;HPM_P1;HPM_P2
2022/05/09 00:01:19;;;;;;;1.13;0.93;;;10.40;89.80;10.40;101673.00;;;;4955801;28;109065;-67
2022/05/09 00:03:45;;;;;;;0.83;0.80;;;10.40;89.60;10.40;101667.00;;;;4950089;28;102757;-67
2022/05/09 00:06:12;;;;;;;1.53;1.40;;;10.40;89.20;10.50;101668.00;;;;4936785;28;88520;-66
2022/05/09 00:08:39;;;;;;;5.63;1.07;;;10.50;89.10;10.60;101673.00;;;;4937993;28;86885;-67
2022/05/09 00:11:12;;;;;;;1.10;1.00;;;10.50;89.00;10.60;101677.00;;;;4936074;28;87718;-69
2022/05/09 00:13:38;;;;;;;3.50;0.70;;;10.60;88.80;10.70;101671.00;;;;4938397;28;88415;-66
2022/05/09 00:16:05;;;;;;;3.13;1.00;;;10.70;88.50;10.80;101668.00;;;;4952812;28;118916;-69
2022/05/09 00:18:31;;;;;;;1.30;1.00;;;10.70;88.30;10.80;101671.00;;;;4956989;28;89617;-66
2022/05/09 00:20:57;;;;;;;0.93;0.90;;;10.80;88.00;10.90;101669.00;;;;4953941;28;106913;-67
2022/05/09 00:23:23;;;;;;;1.13;0.57;;;10.90;87.70;10.90;101669.00;;;;4955226;28;117152;-67
2022/05/09 00:25:54;;;;;;;1.63;1.00;;;10.90;87.40;11.00;101674.00;;;;4954823;28;87880;-66
2022/05/09 00:28:20;;;;;;;0.77;0.50;;;11.00;87.10;11.00;101678.00;;;;4955835;28;109154;-67
2022/05/09 00:30:46;;;;;;;0.70;0.63;;;11.40;87.00;11.10;101680.00;;;;4956466;28;87684;-68
2022/05/09 00:33:12;;;;;;;0.83;0.80;;;11.10;86.50;11.10;101682.00;;;;4956015;28;116361;-67
2022/05/09 00:35:37;;;;;;;5.73;0.97;;;11.00;86.10;11.10;101677.00;;;;4953299;28;117355;-67
2022/05/09 00:38:03;;;;;;;1.73;1.00;;;11.10;85.90;11.10;101677.00;;;;4956318;28;87787;-66
2022/05/09 00:40:29;;;;;;;1.57;1.17;;;11.10;85.70;11.10;101678.00;;;;4955764;28;88771;-69
2022/05/09 00:42:55;;;;;;;4.97;1.30;;;11.10;85.60;11.00;101679.00;;;;4955093;28;117348;-67
2022/05/09 00:45:24;;;;;;;0.87;0.80;;;11.00;85.40;11.00;101679.00;;;;4943160;28;88207;-67
2022/05/09 00:47:50;;;;;;;4.00;1.53;;;11.00;85.60;10.90;101685.00;;;;4936440;28;87812;-67
2022/05/09 00:50:23;;;;;;;9.60;1.00;;;10.90;85.60;10.80;101687.00;;;;4936566;28;95686;-66
2022/05/09 00:53:04;;;;;;;1.97;1.10;;;10.80;85.70;10.70;101688.00;;;;4934913;28;88339;-66
2022/05/09 00:56:00;;;;;;;3.67;1.20;;;10.80;85.90;10.60;101690.00;;;;4935318;28;87904;-67
2022/05/09 00:58:33;;;;;;;1.43;0.97;;;10.70;86.10;10.60;101693.00;;;;4955718;28;87419;-67
2022/05/09 01:01:00;;;;;;;3.00;1.30;;;10.60;86.40;10.50;101693.00;;;;4941882;28;87732;-68
2022/05/09 01:03:48;;;;;;;1.30;1.03;;;10.60;86.80;10.50;101682.00;;;;4954130;28;88747;-67
2022/05/09 01:06:14;;;;;;;1.73;1.40;;;10.50;87.00;10.50;101686.00;;;;4941304;28;112240;-68
2022/05/09 01:08:39;;;;;;;2.27;1.23;;;10.50;87.30;10.40;101689.00;;;;4954607;28;111512;-69
2022/05/09 01:11:11;;;;;;;1.17;1.07;;;10.50;87.40;10.40;101687.00;;;;4950571;28;89848;-67
2022/05/09 01:13:43;;;;;;;1.67;0.90;;;10.50;87.80;10.40;101682.00;;;;4936233;28;90191;-67
2022/05/09 01:16:09;;;;;;;2.27;1.03;;;10.50;87.90;10.50;101692.00;;;;4955004;28;87858;-66
2022/05/09 01:18:36;;;;;;;1.00;0.90;;;10.50;88.00;10.50;101683.00;;;;4935148;28;108942;-66
2022/05/09 01:21:32;;;;;;;2.60;1.07;;;10.50;87.90;10.40;101686.00;;;;4948193;28;87772;-66
2022/05/09 01:23:57;;;;;;;1.33;0.87;;;10.40;87.90;10.40;101691.00;;;;4933040;28;103607;-67
2022/05/09 01:26:24;;;;;;;1.23;1.00;;;10.50;88.10;10.40;101687.00;;;;4936955;28;87955;-66
2022/05/09 01:28:50;;;;;;;4.10;1.83;;;10.40;88.20;10.40;101686.00;;;;4937512;28;88037;-67
2022/05/09 01:31:18;;;;;;;0.80;0.80;;;10.40;88.60;10.30;101685.00;;;;4953752;28;88849;-67
2022/05/09 01:33:50;;;;;;;3.13;1.23;;;10.40;88.90;10.30;101682.00;;;;4954574;28;88777;-67
2022/05/09 01:36:28;;;;;;;1.17;0.90;;;10.40;89.30;10.30;101682.00;;;;4950486;28;87932;-66
2022/05/09 01:39:04;;;;;;;3.07;1.37;;;10.30;89.20;10.20;101682.00;;;;4951315;28;87689;-66
2022/05/09 01:41:43;;;;;;;0.60;0.60;;;10.20;89.40;10.20;101687.00;;;;4950925;28;99360;-68
2022/05/09 01:44:10;;;;;;;4.23;1.57;;;10.20;89.60;10.10;101679.00;;;;4950976;28;88166;-68
2022/05/09 01:49:29;;;;;;;2.07;0.80;;;10.20;89.90;10.10;101681.00;;;;4934031;28;87880;-67
2022/05/09 01:49:30;;;;;;;2.33;1.50;;;10.10;90.00;10.10;101686.00;;;;4937529;28;87259;-66
2022/05/09 01:52:02;;;;;;;2.80;1.47;;;10.10;90.00;10.00;101689.00;;;;4935468;28;87641;-67
2022/05/09 01:54:28;;;;;;;2.30;1.20;;;10.00;90.10;9.90;101693.00;;;;4935430;28;109179;-67
2022/05/09 01:56:54;;;;;;;1.40;1.07;;;10.00;90.30;9.90;101687.00;;;;4935088;28;88717;-67
2022/05/09 01:59:20;;;;;;;5.90;1.10;;;9.90;90.40;9.80;101683.00;;;;4940865;28;100984;-68
2022/05/09 02:01:54;;;;;;;1.33;1.23;;;9.90;90.60;9.80;101697.00;;;;4954953;28;107411;-67
2022/05/09 02:04:20;;;;;;;1.47;1.10;;;9.80;90.80;9.70;101690.00;;;;4955319;28;88286;-68
2022/05/09 02:06:46;;;;;;;1.47;0.90;;;9.70;91.10;9.60;101691.00;;;;4948984;28;88922;-69
2022/05/09 02:09:12;;;;;;;5.13;1.47;;;9.70;91.20;9.60;101690.00;;;;4935971;28;108115;-68
2022/05/09 02:11:40;;;;;;;2.13;1.30;;;9.60;91.40;9.50;101693.00;;;;4935086;28;101341;-68
2022/05/09 02:14:06;;;;;;;2.70;1.37;;;9.60;91.50;9.40;101686.00;;;;4935195;28;87588;-68
2022/05/09 02:16:33;;;;;;;3.20;1.37;;;9.50;91.70;9.40;101681.00;;;;4949802;28;87882;-68
2022/05/09 02:18:58;;;;;;;1.67;1.07;;;9.40;91.80;9.30;101684.00;;;;4934633;28;111573;-69
2022/05/09 02:21:25;;;;;;;3.80;1.87;;;9.40;92.00;9.30;101704.00;;;;4952692;28;88648;-68
2022/05/09 02:23:51;;;;;;;2.53;1.50;;;9.30;92.00;9.20;101689.00;;;;4952580;28;117852;-69
2022/05/09 02:26:17;;;;;;;4.50;1.80;;;9.30;92.20;9.20;101691.00;;;;4953231;28;87667;-69
2022/05/09 02:28:42;;;;;;;2.83;1.20;;;9.30;92.40;9.10;101683.00;;;;4954456;28;87706;-69
2022/05/09 02:31:08;;;;;;;2.20;1.37;;;9.20;92.60;9.00;101690.00;;;;4935297;28;87881;-68
2022/05/09 02:33:35;;;;;;;1.57;1.30;;;9.10;92.80;9.00;101686.00;;;;4933767;28;118211;-69
2022/05/09 02:36:00;;;;;;;2.00;1.57;;;9.10;93.00;8.90;101686.00;;;;4957474;28;87916;-69
2022/05/09 02:38:28;;;;;;;1.03;0.93;;;9.00;93.10;8.90;101687.00;;;;4957689;28;110332;-69
2022/05/09 02:40:55;;;;;;;3.43;1.00;;;8.90;93.30;8.80;101684.00;;;;4942387;28;88089;-69
2022/05/09 02:43:22;;;;;;;2.10;1.33;;;8.90;93.60;8.70;101685.00;;;;4938536;28;95243;-69
2022/05/09 02:45:48;;;;;;;4.20;1.77;;;8.80;93.80;8.70;101691.00;;;;4955510;28;88701;-69
2022/05/09 02:48:16;;;;;;;1.47;1.20;;;8.80;93.90;8.70;101692.00;;;;4957843;28;87796;-68
2022/05/09 02:50:41;;;;;;;2.80;1.63;;;8.80;94.20;8.60;101696.00;;;;4943183;28;109942;-68
2022/05/09 02:53:08;;;;;;;2.10;0.90;;;8.70;94.30;8.60;101696.00;;;;4937756;28;88841;-68
2022/05/09 02:55:34;;;;;;;7.73;2.10;;;9.00;94.60;8.50;101687.00;;;;4937954;28;88664;-68
2022/05/09 02:58:03;;;;;;;1.93;1.23;;;8.60;94.70;8.50;101690.00;;;;4938798;28;87844;-68
2022/05/09 03:00:30;;;;;;;1.30;1.07;;;8.60;94.90;8.50;101694.00;;;;4942698;28;87880;-68
2022/05/09 03:05:44;;;;;;;0.87;0.83;;;8.50;95.40;8.40;101687.00;;;;4955504;28;87872;-68
2022/05/09 03:08:12;;;;;;;5.03;1.13;;;8.40;95.80;8.40;101699.00;;;;4958339;28;87831;-68
2022/05/09 03:10:38;;;;;;;2.37;1.33;;;8.50;96.00;8.30;101699.00;;;;4944079;28;102724;-68
2022/05/09 03:13:06;;;;;;;2.97;1.30;;;8.50;96.20;8.30;101690.00;;;;4941815;28;90550;-69
2022/05/09 03:15:40;;;;;;;0.77;0.67;;;8.40;96.50;8.30;101699.00;;;;4957845;28;88113;-68
2022/05/09 03:18:06;;;;;;;3.33;1.47;;;8.40;96.70;8.20;101696.00;;;;4957455;28;87895;-67
2022/05/09 03:20:32;;;;;;;1.63;1.30;;;8.30;96.90;8.20;101699.00;;;;4956837;28;88816;-67
2022/05/09 03:23:02;;;;;;;7.80;1.73;;;8.30;97.00;8.20;101711.00;;;;4955238;28;88189;-67
2022/05/09 03:25:28;;;;;;;1.67;1.53;;;8.30;97.20;8.10;101710.00;;;;4954933;28;88188;-67
2022/05/09 03:27:54;;;;;;;3.93;1.43;;;8.20;97.40;8.10;101713.00;;;;4956968;28;109659;-67
2022/05/09 03:30:20;;;;;;;1.67;1.27;;;8.20;97.70;8.10;101713.00;;;;4957557;28;87777;-67
2022/05/09 03:32:47;;;;;;;5.17;1.40;;;8.50;98.10;8.10;101713.00;;;;4954821;28;117076;-67
2022/05/09 03:35:12;;;;;;;3.63;1.30;;;8.20;98.10;8.10;101710.00;;;;4956560;28;88988;-68
2022/05/09 03:37:38;;;;;;;2.70;1.30;;;8.20;98.40;8.10;101712.00;;;;4957088;28;109845;-66
2022/05/09 03:40:06;;;;;;;3.50;1.70;;;8.20;98.70;8.10;101714.00;;;;4956672;28;87724;-66
2022/05/09 03:42:32;;;;;;;9.10;1.77;;;8.10;98.90;8.00;101707.00;;;;4956492;28;109334;-65
2022/05/09 03:44:57;;;;;;;2.97;1.57;;;8.10;99.00;8.00;101714.00;;;;4947698;28;88466;-65
2022/05/09 03:47:23;;;;;;;3.50;2.23;;;8.10;99.10;8.00;101717.00;;;;4956833;28;88160;-66
2022/05/09 03:49:50;;;;;;;2.97;1.37;;;8.10;99.50;8.00;101716.00;;;;4956053;28;95981;-66
2022/05/09 03:52:16;;;;;;;1.10;1.03;;;8.10;99.70;8.00;101715.00;;;;4957255;28;87109;-66
2022/05/09 03:54:42;;;;;;;2.00;1.40;;;8.10;99.90;8.00;101713.00;;;;4939598;28;88262;-66
2022/05/09 03:57:14;;;;;;;2.50;1.50;;;8.10;99.90;8.00;101717.00;;;;4937230;28;88517;-66
2022/05/09 03:59:40;;;;;;;2.13;1.23;;;8.10;99.90;8.00;101715.00;;;;4935757;28;99396;-65
2022/05/09 04:02:06;;;;;;;2.83;1.47;;;8.10;99.90;8.00;101719.00;;;;4948237;28;117850;-65
2022/05/09 04:04:31;;;;;;;2.60;2.00;;;8.10;99.90;8.10;101722.00;;;;4955121;28;117389;-65
2022/05/09 04:06:57;;;;;;;2.40;1.73;;;8.20;99.90;8.10;101714.00;;;;4956189;28;110505;-66
2022/05/09 04:09:23;;;;;;;1.60;1.07;;;8.20;99.90;8.10;101713.00;;;;4955793;28;109748;-66
2022/05/09 04:11:50;;;;;;;2.63;1.37;;;8.20;99.90;8.10;101718.00;;;;4953372;28;117781;-67
2022/05/09 04:16:49;;;;;;;1.43;0.83;;;8.30;99.90;8.20;101717.00;;;;4943737;28;87862;-67
2022/05/09 04:17:02;;;;;;;8.00;1.63;;;8.20;99.90;8.20;101717.00;;;;4937104;28;87068;-68
2022/05/09 04:19:27;;;;;;;5.30;1.47;;;8.30;99.90;8.30;101715.00;;;;4963603;28;88493;-67
2022/05/09 04:21:53;;;;;;;1.97;1.77;;;8.40;99.90;8.40;101723.00;;;;4953946;28;118846;-66
2022/05/09 04:24:20;;;;;;;3.90;1.77;;;8.40;99.90;8.40;101717.00;;;;4953686;28;112350;-67
2022/05/09 04:26:45;;;;;;;2.27;1.30;;;8.50;99.90;8.50;101728.00;;;;4956429;28;87876;-67
2022/05/09 04:29:11;;;;;;;3.90;1.43;;;8.60;99.90;8.60;101725.00;;;;4951994;28;87907;-67
2022/05/09 04:31:37;;;;;;;1.90;1.50;;;8.60;99.90;8.70;101730.00;;;;4950665;28;111265;-66
2022/05/09 04:34:03;;;;;;;1.37;1.27;;;8.70;99.90;8.70;101715.00;;;;4946422;28;88603;-66
2022/05/09 04:36:29;;;;;;;1.90;1.33;;;8.80;99.90;8.80;101731.00;;;;4956811;28;87744;-69
2022/05/09 04:38:55;;;;;;;9.97;1.90;;;8.90;99.90;8.90;101727.00;;;;4952872;28;88017;-67
2022/05/09 04:41:22;;;;;;;3.10;1.70;;;8.90;99.90;9.00;101731.00;;;;4953638;28;87458;-68
2022/05/09 04:43:48;;;;;;;3.70;1.40;;;9.00;99.90;9.10;101731.00;;;;4950368;28;87792;-67
2022/05/09 04:46:15;;;;;;;3.23;1.03;;;9.10;99.90;9.20;101734.00;;;;4951593;28;87977;-66
2022/05/09 04:48:42;;;;;;;1.57;1.13;;;9.20;99.90;9.30;101739.00;;;;4949144;28;88690;-68
2022/05/09 04:51:17;;;;;;;3.97;1.57;;;9.30;99.90;9.40;101745.00;;;;4947071;28;88761;-66
2022/05/09 04:53:43;;;;;;;1.50;1.37;;;9.50;99.90;9.60;101733.00;;;;4950951;28;87557;-66
2022/05/09 04:56:10;;;;;;;1.97;1.17;;;9.50;99.90;9.70;101724.00;;;;4951332;28;87905;-67
2022/05/09 04:58:35;;;;;;;5.87;1.87;;;9.70;99.90;9.80;101739.00;;;;4952730;28;87766;-66
2022/05/09 05:01:01;;;;;;;2.93;1.20;;;9.80;99.90;10.00;101731.00;;;;4951607;28;117605;-66
2022/05/09 05:03:27;;;;;;;4.10;1.20;;;9.90;99.90;10.20;101746.00;;;;4951505;28;106123;-66
2022/05/09 05:05:53;;;;;;;3.03;1.23;;;10.10;99.90;10.30;101749.00;;;;4948572;28;87065;-66
2022/05/09 05:08:21;;;;;;;4.70;2.27;;;10.20;99.90;10.50;101751.00;;;;4948942;28;108473;-66
2022/05/09 05:10:52;;;;;;;2.70;1.30;;;10.40;99.90;10.60;101758.00;;;;4965724;28;88729;-66
2022/05/09 05:13:20;;;;;;;2.87;1.60;;;10.50;99.30;10.80;101753.00;;;;4955042;28;89050;-66
2022/05/09 05:15:47;;;;;;;3.83;1.47;;;10.70;99.00;10.90;101753.00;;;;4955838;28;87968;-66
2022/05/09 05:18:18;;;;;;;2.83;1.47;;;10.90;98.60;11.20;101756.00;;;;4956004;28;87593;-66
2022/05/09 05:20:44;;;;;;;2.77;1.30;;;11.00;98.20;11.30;101761.00;;;;4953734;28;87799;-67
2022/05/09 05:23:10;;;;;;;6.07;1.37;;;11.20;97.60;11.50;101758.00;;;;4951729;28;117721;-66
2022/05/09 05:25:36;;;;;;;2.07;1.47;;;11.40;97.00;11.70;101763.00;;;;4936732;28;110672;-66
2022/05/09 05:28:01;;;;;;;5.13;1.90;;;11.50;96.50;11.80;101766.00;;;;4937971;28;87703;-66
2022/05/09 05:30:27;;;;;;;1.53;1.27;;;11.70;96.10;12.00;101769.00;;;;4954741;28;114706;-67
2022/05/09 05:32:55;;;;;;;1.87;1.13;;;11.90;95.70;12.20;101779.00;;;;4954214;28;117513;-69
2022/05/09 05:35:23;;;;;;;3.70;1.47;;;12.10;95.20;12.40;101777.00;;;;4955552;28;87785;-65
2022/05/09 05:37:50;;;;;;;3.83;1.83;;;12.30;94.60;12.60;101778.00;;;;4934648;28;100390;-65
2022/05/09 05:40:17;;;;;;;2.23;1.37;;;12.50;94.10;12.80;101774.00;;;;4934528;28;110323;-66
2022/05/09 05:42:44;;;;;;;1.37;1.27;;;12.60;93.50;13.00;101767.00;;;;4935610;28;88823;-66
2022/05/09 05:45:13;;;;;;;5.67;2.03;;;12.80;93.10;13.10;101780.00;;;;4960819;28;88066;-65
2022/05/09 05:47:39;;;;;;;1.30;1.00;;;13.00;91.70;13.30;101781.00;;;;4936797;28;87674;-66
2022/05/09 05:50:08;;;;;;;2.77;1.53;;;13.10;91.30;13.40;101773.00;;;;4934851;28;88981;-66
2022/05/09 05:52:33;;;;;;;1.97;1.73;;;13.20;90.30;13.50;101781.00;;;;4935905;28;88065;-67
2022/05/09 05:54:59;;;;;;;2.40;1.33;;;13.40;90.20;13.70;101777.00;;;;4936356;28;86792;-66
2022/05/09 05:57:28;;;;;;;2.93;1.60;;;13.50;89.60;13.80;101777.00;;;;4950940;28;109013;-66
2022/05/09 06:00:02;;;;;;;2.23;1.37;;;13.70;89.20;14.00;101780.00;;;;4944583;28;101904;-68
2022/05/09 06:02:28;;;;;;;2.83;1.60;;;13.80;88.10;14.10;101777.00;;;;4950872;28;88645;-67
2022/05/09 06:04:54;;;;;;;1.43;1.30;;;14.00;87.80;14.30;101771.00;;;;4955572;28;87834;-67
2022/05/09 06:07:22;;;;;;;2.80;1.27;;;14.20;87.00;14.50;101782.00;;;;4955999;28;87748;-66
2022/05/09 06:09:49;;;;;;;2.63;1.60;;;14.40;86.50;14.70;101785.00;;;;4955206;28;87916;-66
2022/05/09 06:12:19;;;;;;;1.33;1.10;;;14.50;84.10;14.80;101784.00;;;;4947153;28;88946;-66
2022/05/09 06:15:24;;;;;;;2.00;1.33;;;14.60;82.40;14.80;101795.00;;;;4947532;28;87802;-66
2022/05/09 06:17:30;;;;;;;2.37;1.57;;;14.70;81.30;15.00;101790.00;;;;4942647;28;87944;-65
2022/05/09 06:19:56;;;;;;;2.60;1.87;;;14.90;81.50;15.00;101796.00;;;;4960307;28;117882;-65
2022/05/09 06:22:22;;;;;;;3.23;2.03;;;14.90;79.70;15.10;101797.00;;;;4955637;28;115300;-65
2022/05/09 06:24:47;;;;;;;6.20;1.77;;;15.00;79.90;15.30;101792.00;;;;4957964;28;109977;-65
2022/05/09 06:27:13;;;;;;;3.10;1.75;;;15.10;79.10;15.50;101794.00;;;;4955752;28;96340;-67
2022/05/09 06:29:39;;;;;;;5.33;1.50;;;15.30;78.80;15.70;101794.00;;;;4956084;28;116143;-68
2022/05/09 06:32:05;;;;;;;4.22;1.65;;;15.50;77.50;15.90;101807.00;;;;4955304;28;116938;-67
2022/05/09 06:34:30;;;;;;;2.00;1.67;;;15.70;76.80;16.00;101797.00;;;;4937769;28;104041;-65
2022/05/09 06:36:56;;;;;;;3.83;1.42;;;15.80;74.60;16.20;101802.00;;;;4946303;28;108910;-66
2022/05/09 06:39:22;;;;;;;2.42;1.45;;;16.00;73.70;16.40;101807.00;;;;4937847;28;118384;-64
2022/05/09 06:41:47;;;;;;;3.72;2.38;;;16.10;73.40;16.60;101807.00;;;;4953427;28;116120;-64
2022/05/09 06:44:13;;;;;;;1.92;1.52;;;16.40;72.00;16.80;101811.00;;;;4939100;28;87133;-67
2022/05/09 06:46:39;;;;;;;2.15;1.65;;;16.60;70.00;16.90;101810.00;;;;4942378;28;108895;-65
2022/05/09 06:49:04;;;;;;;1.27;1.00;;;16.70;69.30;17.00;101807.00;;;;4937577;28;118380;-65
2022/05/09 06:51:30;;;;;;;5.03;2.03;;;16.80;68.10;17.20;101802.00;;;;4951103;28;116623;-65
2022/05/09 06:53:56;;;;;;;2.17;1.40;;;17.00;67.90;17.40;101805.00;;;;4957808;28;87630;-65
2022/05/09 06:56:22;;;;;;;2.83;1.70;;;17.20;67.20;17.60;101804.00;;;;4948035;28;109231;-65
2022/05/09 06:58:48;;;;;;;3.67;2.15;;;17.40;66.30;17.80;101808.00;;;;4958425;28;88934;-65
2022/05/09 07:01:16;;;;;;;1.15;1.02;;;17.60;66.10;18.10;101804.00;;;;4956196;28;117818;-66
2022/05/09 07:04:17;;;;;;;3.63;1.83;;;17.80;65.70;18.50;101812.00;;;;4958044;28;87678;-66
2022/05/09 07:06:43;;;;;;;1.40;1.05;;;18.20;64.60;18.80;101805.00;;;;4954467;28;88057;-66
2022/05/09 07:09:10;;;;;;;2.63;1.70;;;18.50;63.00;19.00;101805.00;;;;4958344;28;87153;-65
2022/05/09 07:11:36;;;;;;;11.75;2.25;;;18.70;60.10;19.10;101811.00;;;;4951503;28;87909;-65
2022/05/09 07:14:03;;;;;;;1.85;1.38;;;18.90;59.40;19.20;101808.00;;;;4937535;28;110478;-65
2022/05/09 07:16:29;;;;;;;4.55;1.38;;;19.00;59.30;19.50;101807.00;;;;4941602;28;105339;-67
2022/05/09 07:18:54;;;;;;;1.27;1.17;;;19.20;58.10;19.60;101808.00;;;;4955107;28;103729;-67
2022/05/09 07:21:21;;;;;;;4.20;2.15;;;19.40;56.80;19.70;101810.00;;;;4935204;28;117270;-66
2022/05/09 07:23:46;;;;;;;6.57;1.77;;;19.50;56.30;19.80;101813.00;;;;4939272;28;87865;-67
2022/05/09 07:26:12;;;;;;;3.88;2.35;;;19.60;54.40;19.70;101812.00;;;;4943025;28;109609;-66
2022/05/09 07:28:40;;;;;;;10.38;1.42;;;19.60;53.90;19.70;101806.00;;;;4938062;28;88329;-66
2022/05/09 07:31:06;;;;;;;2.88;1.40;;;19.40;53.80;19.70;101807.00;;;;4957627;28;87923;-66
2022/05/09 07:33:32;;;;;;;3.78;1.85;;;19.60;53.60;19.80;101815.00;;;;4956528;28;110818;-66
2022/05/09 07:35:58;;;;;;;3.58;2.30;;;19.60;53.70;19.90;101811.00;;;;4938116;28;87676;-68
2022/05/09 07:38:24;;;;;;;2.50;1.83;;;19.70;53.60;20.10;101812.00;;;;4936375;28;118388;-67
2022/05/09 07:40:51;;;;;;;1.27;1.17;;;19.80;53.80;20.20;101810.00;;;;4938724;28;105698;-67
2022/05/09 07:43:23;;;;;;;8.52;2.55;;;20.00;52.80;20.40;101814.00;;;;4945729;28;87737;-67
2022/05/09 07:45:51;;;;;;;4.88;1.98;;;20.20;53.30;20.70;101817.00;;;;4937685;28;87673;-70
2022/05/09 07:48:21;;;;;;;1.88;1.63;;;20.40;53.50;21.00;101811.00;;;;4938566;28;88778;-68
2022/05/09 07:50:47;;;;;;;4.60;1.70;;;20.70;52.60;21.30;101812.00;;;;4955041;28;87737;-69
2022/05/09 07:53:21;;;;;;;1.20;1.10;;;21.00;52.30;21.50;101810.00;;;;4955203;28;87596;-68
2022/05/09 07:55:53;;;;;;;4.25;1.98;;;21.20;52.20;21.80;101813.00;;;;4956568;28;87758;-70
2022/05/09 07:58:19;;;;;;;1.27;1.15;;;21.50;51.60;22.00;101815.00;;;;4952911;28;117221;-69
2022/05/09 08:00:46;;;;;;;1.58;1.40;;;21.70;51.60;22.20;101807.00;;;;4956702;28;88106;-70
2022/05/09 08:03:22;;;;;;;2.28;1.70;;;22.00;51.10;22.50;101809.00;;;;4957169;28;87893;-68
2022/05/09 08:05:49;;;;;;;14.65;2.15;;;22.20;49.80;22.60;101812.00;;;;4954386;28;90815;-68
2022/05/09 08:08:16;;;;;;;2.10;1.85;;;22.30;49.40;22.60;101814.00;;;;4956812;28;88056;-68
2022/05/09 08:10:43;;;;;;;2.58;1.45;;;22.40;48.90;22.80;101811.00;;;;4956190;28;88415;-69
2022/05/09 08:13:12;;;;;;;4.60;1.63;;;22.60;48.60;22.90;101816.00;;;;4953105;28;87888;-70
2022/05/09 08:15:39;;;;;;;5.90;1.42;;;22.70;48.40;23.00;101812.00;;;;4956103;28;87963;-70
2022/05/09 08:18:05;;;;;;;5.43;2.38;;;22.80;47.90;23.10;101809.00;;;;4956071;28;100806;-68
2022/05/09 08:20:34;;;;;;;5.90;2.45;;;22.90;46.30;22.90;101808.00;;;;4956187;28;88540;-68
2022/05/09 08:23:04;;;;;;;5.65;1.77;;;22.80;46.20;22.80;101808.00;;;;4940048;28;87107;-68
2022/05/09 08:25:30;;;;;;;4.32;1.35;;;22.70;46.10;22.70;101814.00;;;;4937179;28;87750;-70
2022/05/09 08:27:56;;;;;;;2.03;1.73;;;22.60;46.50;22.70;101813.00;;;;4935845;28;117687;-68
2022/05/09 08:30:21;;;;;;;3.78;1.42;;;22.50;46.70;22.70;101803.00;;;;4949954;28;118004;-69
2022/05/09 08:32:47;;;;;;;7.80;2.17;;;22.50;46.00;22.80;101814.00;;;;4939971;28;110562;-69
2022/05/09 08:35:13;;;;;;;2.40;1.00;;;22.60;45.70;22.90;101815.00;;;;4949006;28;109016;-67
2022/05/09 08:37:40;;;;;;;2.03;1.52;;;22.60;45.30;23.00;101812.00;;;;4956345;28;88539;-70
2022/05/09 08:40:06;;;;;;;3.50;2.08;;;22.70;45.20;23.20;101805.00;;;;4955314;28;107905;-70
2022/05/09 08:42:42;;;;;;;7.80;1.77;;;22.80;44.30;23.30;101798.00;;;;4945027;28;101397;-68
2022/05/09 08:45:33;;;;;;;5.63;1.70;;;23.00;42.50;23.30;101804.00;;;;4964357;28;87807;-68
2022/05/09 08:48:22;;;;;;;3.55;1.65;;;23.10;42.40;23.30;101799.00;;;;4954460;28;87165;-68
2022/05/09 08:51:33;;;;;;;5.00;1.15;;;23.00;42.10;23.40;101809.00;;;;4935327;28;110129;-69
2022/05/09 08:54:06;;;;;;;3.22;1.63;;;23.10;42.60;23.60;101810.00;;;;4934418;28;87730;-69
2022/05/09 08:56:33;;;;;;;2.47;1.73;;;23.20;42.90;23.80;101813.00;;;;4955825;28;88905;-70
2022/05/09 08:59:03;;;;;;;2.58;1.40;;;23.30;43.20;24.10;101808.00;;;;4950198;28;97963;-69
2022/05/09 09:01:50;;;;;;;2.38;1.60;;;23.60;41.60;24.00;101801.00;;;;4965093;28;87894;-70
2022/05/09 09:04:30;;;;;;;2.65;1.58;;;23.70;41.30;24.00;101810.00;;;;4950428;28;103357;-69
2022/05/09 09:07:11;;;;;;;3.60;1.48;;;23.70;39.90;24.00;101808.00;;;;4964898;28;87942;-68
2022/05/09 09:10:10;;;;;;;4.28;1.83;;;23.60;38.90;24.00;101808.00;;;;4956177;28;87854;-70
2022/05/09 09:13:14;;;;;;;0.73;0.73;;;23.70;38.60;24.10;101811.00;;;;4949134;28;87927;-69
2022/05/09 09:15:47;;;;;;;2.65;0.82;;;23.70;37.70;24.20;101823.00;;;;4954705;28;86847;-71
2022/05/09 09:18:35;;;;;;;0.80;0.80;;;23.80;38.50;24.40;101812.00;;;;4954169;28;88103;-71
2022/05/09 09:21:21;;;;;;;4.72;1.40;;;24.00;38.30;24.60;101817.00;;;;4935279;28;96730;-71
2022/05/09 09:24:13;;;;;;;2.40;0.90;;;24.20;37.40;24.70;101827.00;;;;4948673;28;112117;-69
2022/05/09 09:27:10;;;;;;;2.28;0.98;;;24.30;35.00;24.70;101812.00;;;;4934602;28;87817;-69
2022/05/09 09:29:46;;;;;;;1.27;1.15;;;24.40;34.80;24.70;101813.00;;;;4935884;28;87720;-69
2022/05/09 09:32:20;;;;;;;3.95;1.10;;;24.40;33.50;24.80;101818.00;;;;4956776;28;87990;-71
2022/05/09 09:35:08;;;;;;;1.70;0.80;;;24.40;32.70;25.00;101813.00;;;;4945681;28;88845;-71
2022/05/09 09:38:05;;;;;;;1.95;1.13;;;24.60;33.60;25.10;101813.00;;;;4935902;28;87762;-69
2022/05/09 09:40:31;;;;;;;2.17;1.00;;;24.70;33.10;25.20;101804.00;;;;4936099;28;87589;-69
2022/05/09 09:42:57;;;;;;;0.98;0.80;;;24.80;32.40;25.20;101808.00;;;;4954657;28;96434;-71
2022/05/09 09:45:30;;;;;;;3.03;1.27;;;24.80;33.60;25.40;101807.00;;;;4953424;28;117582;-72
2022/05/09 09:48:17;;;;;;;2.40;1.00;;;24.90;34.70;25.70;101808.00;;;;4956013;28;87794;-69
2022/05/09 09:51:17;;;;;;;0.95;0.80;;;25.20;33.50;25.70;101813.00;;;;4952801;28;88929;-68
2022/05/09 09:54:01;;;;;;;2.45;1.02;;;25.30;34.20;25.80;101816.00;;;;4929467;28;88028;-68
2022/05/09 09:56:31;;;;;;;4.43;1.65;;;25.30;33.30;26.00;101815.00;;;;4950236;28;88003;-69
2022/05/09 09:59:21;;;;;;;2.63;1.15;;;25.50;33.60;26.20;101806.00;;;;4936026;28;88003;-68
2022/05/09 10:02:03;;;;;;;1.42;1.02;;;25.70;32.20;26.30;101811.00;;;;4954820;28;87674;-68
2022/05/09 10:04:38;;;;;;;3.78;1.13;;;25.70;31.80;26.30;101815.00;;;;4955072;28;88729;-70
2022/05/09 10:07:13;;;;;;;7.38;1.25;;;25.80;32.50;26.50;101809.00;;;;4955803;28;88277;-71
2022/05/09 10:09:45;;;;;;;2.95;1.35;;;25.90;31.40;26.60;101805.00;;;;4945592;28;86895;-70
2022/05/09 10:12:18;;;;;;;3.08;1.50;;;26.00;31.50;26.60;101802.00;;;;4935727;28;88104;-69
2022/05/09 10:14:45;;;;;;;0.70;0.70;;;26.00;31.10;26.60;101800.00;;;;4956109;28;87868;-68
2022/05/09 10:17:24;;;;;;;0.93;0.80;;;26.10;30.80;26.80;101808.00;;;;4965083;28;110074;-67
2022/05/09 10:19:51;;;;;;;0.70;0.70;;;26.10;31.00;26.80;101799.00;;;;4951591;28;87815;-69
2022/05/09 10:25:25;;;;;;;2.75;1.38;;;26.10;30.90;26.80;101802.00;;;;4933702;28;87814;-70
2022/05/09 10:28:21;;;;;;;1.48;0.90;;;26.20;31.40;26.70;101794.00;;;;4934884;28;88713;-68
2022/05/09 10:30:53;;;;;;;1.83;1.05;;;26.20;31.20;26.80;101801.00;;;;4928275;28;87779;-69
2022/05/09 10:33:38;;;;;;;6.35;1.50;;;26.10;31.60;26.80;101786.00;;;;4964236;28;88656;-70
2022/05/09 10:36:17;;;;;;;2.05;1.20;;;26.20;31.70;27.00;101789.00;;;;4933662;28;87087;-68
2022/05/09 10:38:54;;;;;;;0.80;0.80;;;26.30;31.90;27.10;101776.00;;;;4933531;28;88098;-68
2022/05/09 10:41:37;;;;;;;3.25;1.48;;;26.40;31.80;27.50;101783.00;;;;4934470;28;87855;-71
2022/05/09 10:44:17;;;;;;;2.67;0.85;;;26.60;32.30;27.70;101775.00;;;;4964242;28;88788;-69
2022/05/09 10:46:58;;;;;;;1.15;0.93;;;26.90;31.50;27.90;101768.00;;;;4966213;28;87919;-69
2022/05/09 10:49:48;;;;;;;3.53;1.00;;;27.20;31.60;28.10;101774.00;;;;4965453;28;88575;-70
2022/05/09 10:52:27;;;;;;;3.47;0.88;;;27.30;31.40;28.30;101774.00;;;;4951972;28;105303;-72
2022/05/09 10:55:12;;;;;;;1.45;0.60;;;27.50;30.70;28.50;101767.00;;;;4944127;28;87972;-69
2022/05/09 10:57:54;;;;;;;2.13;0.60;;;27.70;30.80;28.80;101769.00;;;;4952655;28;88017;-70
2022/05/09 11:00:26;;;;;;;1.02;0.55;;;28.00;31.30;29.20;101758.00;;;;4942356;28;109781;-71
2022/05/09 11:03:34;;;;;;;1.00;0.43;;;28.30;31.30;29.50;101759.00;;;;4971613;28;104194;-69
2022/05/09 11:06:23;;;;;;;1.17;0.80;;;28.60;31.30;29.80;101755.00;;;;4956580;28;87963;-69
2022/05/09 11:08:57;;;;;;;0.63;0.63;;;28.90;30.50;30.00;101752.00;;;;4953454;28;106732;-70
2022/05/09 11:11:41;;;;;;;0.70;0.50;;;29.20;30.60;30.10;101751.00;;;;4937176;28;114631;-71